sensor_id;sensor_type;location;lat;lon;timestamp;pressure;altitude;pressure_sealevel;temperature;humidity
46944;BME280;32678;43.852;25.952;2023-02-12T00:00:35;102207.81;;;2.78;57.29
46944;BME280;32678;43.852;25.952;2023-02-12T00:05:32;102184.06;;;2.58;58.37
46944;BME280;32678;43.852;25.952;2023-02-12T00:10:32;102199.81;;;2.69;58.05
46944;BME280;32678;43.852;25.952;2023-02-12T00:15:30;102196.47;;;2.73;58.63
46944;BME280;32678;43.852;25.952;2023-02-12T00:20:27;102190.53;;;2.79;57.54
46944;BME280;32678;43.852;25.952;2023-02-12T00:25:28;102182.00;;;2.83;57.05
46944;BME280;32678;43.852;25.952;2023-02-12T00:30:28;102209.41;;;2.34;60.64
46944;BME280;32678;43.852;25.952;2023-02-12T00:35:30;102200.41;;;2.20;60.43
46944;BME280;32678;43.852;25.952;2023-02-12T00:40:30;102206.34;;;2.16;60.48
46944;BME280;32678;43.852;25.952;2023-02-12T00:45:30;102196.97;;;2.20;60.67
46944;BME280;32678;43.852;25.952;2023-02-12T00:50:28;102184.75;;;2.15;60.76
46944;BME280;32678;43.852;25.952;2023-02-12T00:55:31;102168.91;;;2.38;60.15
46944;BME280;32678;43.852;25.952;2023-02-12T01:00:31;102161.06;;;2.33;60.97
46944;BME280;32678;43.852;25.952;2023-02-12T01:05:28;102164.94;;;2.16;61.88
46944;BME280;32678;43.852;25.952;2023-02-12T01:10:28;102139.72;;;2.45;61.43
46944;BME280;32678;43.852;25.952;2023-02-12T01:15:29;102142.91;;;2.32;61.89
46944;BME280;32678;43.852;25.952;2023-02-12T01:20:27;102136.69;;;2.25;62.11
46944;BME280;32678;43.852;25.952;2023-02-12T01:25:24;102132.72;;;2.39;61.74
46944;BME280;32678;43.852;25.952;2023-02-12T01:30:23;102127.59;;;2.42;62.09
46944;BME280;32678;43.852;25.952;2023-02-12T01:35:23;102146.81;;;2.14;63.06
46944;BME280;32678;43.852;25.952;2023-02-12T01:40:23;102172.50;;;2.07;63.69
46944;BME280;32678;43.852;25.952;2023-02-12T01:50:58;102167.00;;;1.93;64.78
46944;BME280;32678;43.852;25.952;2023-02-12T01:55:58;102169.78;;;1.68;66.08
46944;BME280;32678;43.852;25.952;2023-02-12T02:00:57;102159.69;;;1.77;66.29
46944;BME280;32678;43.852;25.952;2023-02-12T02:05:55;102159.41;;;2.01;65.49
46944;BME280;32678;43.852;25.952;2023-02-12T02:10:55;102149.88;;;1.98;65.45
46944;BME280;32678;43.852;25.952;2023-02-12T02:15:53;102153.28;;;1.97;65.55
46944;BME280;32678;43.852;25.952;2023-02-12T02:21:10;102151.06;;;2.12;65.62
46944;BME280;32678;43.852;25.952;2023-02-12T02:31:23;102146.44;;;1.99;65.71
46944;BME280;32678;43.852;25.952;2023-02-12T02:36:24;102154.69;;;2.19;65.41
46944;BME280;32678;43.852;25.952;2023-02-12T02:41:24;102165.66;;;2.10;65.71
46944;BME280;32678;43.852;25.952;2023-02-12T02:46:26;102171.66;;;2.08;66.55
46944;BME280;32678;43.852;25.952;2023-02-12T02:51:26;102171.50;;;2.00;66.50
46944;BME280;32678;43.852;25.952;2023-02-12T02:56:25;102178.31;;;1.98;66.84
46944;BME280;32678;43.852;25.952;2023-02-12T03:01:23;102180.47;;;2.16;66.24
46944;BME280;32678;43.852;25.952;2023-02-12T03:06:26;102183.88;;;2.13;66.66
46944;BME280;32678;43.852;25.952;2023-02-12T03:11:25;102197.94;;;2.25;65.96
46944;BME280;32678;43.852;25.952;2023-02-12T03:16:24;102202.09;;;2.18;65.70
46944;BME280;32678;43.852;25.952;2023-02-12T03:21:23;102207.22;;;2.15;66.12
46944;BME280;32678;43.852;25.952;2023-02-12T03:26:25;102202.88;;;2.14;66.23
46944;BME280;32678;43.852;25.952;2023-02-12T03:31:26;102194.13;;;2.09;66.78
46944;BME280;32678;43.852;25.952;2023-02-12T03:36:29;102203.81;;;2.17;66.81
46944;BME280;32678;43.852;25.952;2023-02-12T03:41:30;102212.34;;;2.13;66.67
46944;BME280;32678;43.852;25.952;2023-02-12T03:46:31;102215.47;;;2.00;67.66
46944;BME280;32678;43.852;25.952;2023-02-12T03:51:33;102212.34;;;2.13;67.34
46944;BME280;32678;43.852;25.952;2023-02-12T03:56:33;102210.41;;;2.06;67.23
46944;BME280;32678;43.852;25.952;2023-02-12T04:01:31;102210.13;;;1.94;67.85
46944;BME280;32678;43.852;25.952;2023-02-12T04:06:28;102208.53;;;1.99;67.79
46944;BME280;32678;43.852;25.952;2023-02-12T04:11:29;102202.03;;;1.81;68.27
46944;BME280;32678;43.852;25.952;2023-02-12T04:16:32;102219.78;;;2.01;67.77
46944;BME280;32678;43.852;25.952;2023-02-12T04:21:37;102229.13;;;1.96;68.12
46944;BME280;32678;43.852;25.952;2023-02-12T04:26:41;102230.47;;;1.81;68.58
46944;BME280;32678;43.852;25.952;2023-02-12T04:31:44;102221.47;;;1.99;68.53
46944;BME280;32678;43.852;25.952;2023-02-12T04:36:44;102230.66;;;1.88;68.67
46944;BME280;32678;43.852;25.952;2023-02-12T04:41:41;102238.88;;;2.06;68.13
46944;BME280;32678;43.852;25.952;2023-02-12T04:46:38;102236.06;;;2.32;66.68
46944;BME280;32678;43.852;25.952;2023-02-12T04:51:36;102252.03;;;2.14;68.13
46944;BME280;32678;43.852;25.952;2023-02-12T04:56:32;102230.25;;;1.73;68.08
46944;BME280;32678;43.852;25.952;2023-02-12T05:01:29;102248.81;;;1.90;68.35
46944;BME280;32678;43.852;25.952;2023-02-12T05:06:27;102250.88;;;2.03;67.53
46944;BME280;32678;43.852;25.952;2023-02-12T05:11:25;102263.34;;;1.86;68.91
46944;BME280;32678;43.852;25.952;2023-02-12T05:16:22;102271.88;;;1.82;68.63
46944;BME280;32678;43.852;25.952;2023-02-12T05:21:19;102276.91;;;1.78;69.04
46944;BME280;32678;43.852;25.952;2023-02-12T05:26:17;102294.66;;;1.95;68.83
46944;BME280;32678;43.852;25.952;2023-02-12T05:31:15;102301.47;;;1.93;68.45
46944;BME280;32678;43.852;25.952;2023-02-12T05:36:17;102309.81;;;1.83;68.90
46944;BME280;32678;43.852;25.952;2023-02-12T05:41:15;102315.13;;;1.88;68.58
46944;BME280;32678;43.852;25.952;2023-02-12T05:46:12;102318.63;;;1.90;68.98
46944;BME280;32678;43.852;25.952;2023-02-12T05:51:10;102330.06;;;1.98;68.82
46944;BME280;32678;43.852;25.952;2023-02-12T05:56:08;102349.75;;;1.93;69.22
46944;BME280;32678;43.852;25.952;2023-02-12T06:01:09;102359.69;;;2.09;68.20
46944;BME280;32678;43.852;25.952;2023-02-12T06:06:06;102357.56;;;1.96;68.97
46944;BME280;32678;43.852;25.952;2023-02-12T06:11:04;102356.28;;;2.11;68.62
46944;BME280;32678;43.852;25.952;2023-02-12T06:16:02;102370.63;;;1.99;68.71
46944;BME280;32678;43.852;25.952;2023-02-12T06:20:59;102384.41;;;2.31;68.94
46944;BME280;32678;43.852;25.952;2023-02-12T06:25:56;102379.84;;;2.53;68.23
46944;BME280;32678;43.852;25.952;2023-02-12T06:30:54;102393.53;;;2.82;67.35
46944;BME280;32678;43.852;25.952;2023-02-12T06:35:51;102403.06;;;2.85;66.37
46944;BME280;32678;43.852;25.952;2023-02-12T06:40:48;102400.78;;;2.63;66.89
46944;BME280;32678;43.852;25.952;2023-02-12T06:45:44;102406.41;;;2.46;67.39
46944;BME280;32678;43.852;25.952;2023-02-12T06:50:42;102399.91;;;2.62;67.67
46944;BME280;32678;43.852;25.952;2023-02-12T06:55:41;102399.19;;;2.68;67.19
46944;BME280;32678;43.852;25.952;2023-02-12T07:00:38;102410.50;;;2.71;67.40
46944;BME280;32678;43.852;25.952;2023-02-12T07:05:37;102399.28;;;2.71;67.42
46944;BME280;32678;43.852;25.952;2023-02-12T07:10:35;102392.09;;;2.60;67.69
46944;BME280;32678;43.852;25.952;2023-02-12T07:15:34;102420.03;;;2.72;67.87
46944;BME280;32678;43.852;25.952;2023-02-12T07:20:34;102423.50;;;2.73;68.00
46944;BME280;32678;43.852;25.952;2023-02-12T07:25:30;102429.41;;;2.67;67.91
46944;BME280;32678;43.852;25.952;2023-02-12T07:30:28;102428.88;;;2.80;67.48
46944;BME280;32678;43.852;25.952;2023-02-12T07:35:29;102434.75;;;2.42;69.58
46944;BME280;32678;43.852;25.952;2023-02-12T07:40:26;102433.06;;;2.42;69.85
46944;BME280;32678;43.852;25.952;2023-02-12T07:45:25;102428.69;;;2.41;69.89
46944;BME280;32678;43.852;25.952;2023-02-12T07:50:26;102451.34;;;2.48;70.12
46944;BME280;32678;43.852;25.952;2023-02-12T07:55:26;102452.81;;;2.39;69.92
46944;BME280;32678;43.852;25.952;2023-02-12T08:00:22;102456.84;;;2.29;70.37
46944;BME280;32678;43.852;25.952;2023-02-12T08:05:19;102462.28;;;2.08;70.80
46944;BME280;32678;43.852;25.952;2023-02-12T08:10:17;102466.03;;;2.18;70.33
46944;BME280;32678;43.852;25.952;2023-02-12T08:15:27;102466.97;;;2.22;70.67
46944;BME280;32678;43.852;25.952;2023-02-12T08:20:24;102475.09;;;2.34;70.74
46944;BME280;32678;43.852;25.952;2023-02-12T08:25:21;102494.03;;;2.33;71.14
46944;BME280;32678;43.852;25.952;2023-02-12T08:30:21;102499.41;;;2.39;70.18
46944;BME280;32678;43.852;25.952;2023-02-12T08:35:21;102505.84;;;2.54;69.85
46944;BME280;32678;43.852;25.952;2023-02-12T08:40:18;102511.78;;;2.50;70.25
46944;BME280;32678;43.852;25.952;2023-02-12T08:45:15;102524.75;;;2.82;68.68
46944;BME280;32678;43.852;25.952;2023-02-12T08:50:12;102531.91;;;2.59;70.04
46944;BME280;32678;43.852;25.952;2023-02-12T08:55:12;102550.03;;;2.59;69.85
46944;BME280;32678;43.852;25.952;2023-02-12T09:00:19;102552.78;;;2.65;69.70
46944;BME280;32678;43.852;25.952;2023-02-12T09:05:16;102556.03;;;2.89;69.13
46944;BME280;32678;43.852;25.952;2023-02-12T09:10:13;102560.91;;;2.77;69.09
46944;BME280;32678;43.852;25.952;2023-02-12T09:15:10;102562.91;;;2.87;68.98
46944;BME280;32678;43.852;25.952;2023-02-12T09:20:09;102575.22;;;2.96;68.74
46944;BME280;32678;43.852;25.952;2023-02-12T09:25:08;102567.63;;;3.03;68.64
46944;BME280;32678;43.852;25.952;2023-02-12T09:30:06;102572.34;;;3.17;67.94
46944;BME280;32678;43.852;25.952;2023-02-12T09:35:03;102574.00;;;3.15;67.75
46944;BME280;32678;43.852;25.952;2023-02-12T09:40:01;102567.63;;;3.03;68.15
46944;BME280;32678;43.852;25.952;2023-02-12T09:45:02;102562.38;;;3.00;68.86
46944;BME280;32678;43.852;25.952;2023-02-12T09:50:09;102574.75;;;3.11;68.31
46944;BME280;32678;43.852;25.952;2023-02-12T09:55:10;102586.28;;;3.22;67.14
46944;BME280;32678;43.852;25.952;2023-02-12T10:00:10;102578.28;;;3.14;67.75
46944;BME280;32678;43.852;25.952;2023-02-12T10:05:16;102580.94;;;3.16;68.05
46944;BME280;32678;43.852;25.952;2023-02-12T10:10:24;102584.44;;;3.18;68.51
46944;BME280;32678;43.852;25.952;2023-02-12T10:15:30;102588.00;;;3.21;67.05
46944;BME280;32678;43.852;25.952;2023-02-12T10:25:44;102595.72;;;3.20;67.78
46944;BME280;32678;43.852;25.952;2023-02-12T10:30:44;102593.59;;;3.36;67.51
46944;BME280;32678;43.852;25.952;2023-02-12T10:35:44;102600.13;;;3.22;68.02
46944;BME280;32678;43.852;25.952;2023-02-12T10:40:45;102591.78;;;3.34;67.30
46944;BME280;32678;43.852;25.952;2023-02-12T10:45:43;102579.41;;;3.24;67.22
46944;BME280;32678;43.852;25.952;2023-02-12T10:50:41;102610.59;;;3.60;66.04
46944;BME280;32678;43.852;25.952;2023-02-12T10:55:42;102614.75;;;3.53;66.13
46944;BME280;32678;43.852;25.952;2023-02-12T11:00:40;102623.00;;;3.71;65.97
46944;BME280;32678;43.852;25.952;2023-02-12T11:05:37;102625.09;;;3.52;67.16
46944;BME280;32678;43.852;25.952;2023-02-12T11:10:36;102635.69;;;3.61;66.68
46944;BME280;32678;43.852;25.952;2023-02-12T11:15:36;102638.84;;;3.49;67.20
46944;BME280;32678;43.852;25.952;2023-02-12T11:20:36;102637.25;;;3.54;67.12
46944;BME280;32678;43.852;25.952;2023-02-12T11:25:34;102635.81;;;3.65;67.05
46944;BME280;32678;43.852;25.952;2023-02-12T11:30:32;102632.22;;;3.60;67.17
46944;BME280;32678;43.852;25.952;2023-02-12T11:35:28;102632.78;;;3.83;66.26
46944;BME280;32678;43.852;25.952;2023-02-12T11:40:31;102634.34;;;3.76;66.83
46944;BME280;32678;43.852;25.952;2023-02-12T11:45:30;102632.88;;;3.86;66.59
46944;BME280;32678;43.852;25.952;2023-02-12T11:50:29;102642.03;;;4.08;65.55
46944;BME280;32678;43.852;25.952;2023-02-12T11:55:27;102635.81;;;4.00;66.10
46944;BME280;32678;43.852;25.952;2023-02-12T12:00:31;102635.53;;;3.89;66.88
46944;BME280;32678;43.852;25.952;2023-02-12T12:05:29;102611.13;;;3.81;67.30
46944;BME280;32678;43.852;25.952;2023-02-12T12:10:30;102630.19;;;4.19;66.45
46944;BME280;32678;43.852;25.952;2023-02-12T12:15:31;102632.22;;;4.32;65.82
46944;BME280;32678;43.852;25.952;2023-02-12T12:20:49;102630.34;;;4.26;65.38
46944;BME280;32678;43.852;25.952;2023-02-12T12:25:50;102633.78;;;4.25;65.88
46944;BME280;32678;43.852;25.952;2023-02-12T12:30:53;102632.06;;;4.26;64.93
46944;BME280;32678;43.852;25.952;2023-02-12T12:35:56;102633.94;;;4.31;65.57
46944;BME280;32678;43.852;25.952;2023-02-12T12:40:59;102641.13;;;4.43;64.65
46944;BME280;32678;43.852;25.952;2023-02-12T12:46:05;102646.09;;;4.32;64.58
46944;BME280;32678;43.852;25.952;2023-02-12T12:51:12;102642.06;;;4.47;62.69
46944;BME280;32678;43.852;25.952;2023-02-12T12:56:28;102660.94;;;4.38;62.98
46944;BME280;32678;43.852;25.952;2023-02-12T13:01:37;102665.44;;;4.47;62.40
46944;BME280;32678;43.852;25.952;2023-02-12T13:06:37;102666.47;;;4.53;62.44
46944;BME280;32678;43.852;25.952;2023-02-12T13:11:39;102679.31;;;4.47;62.50
46944;BME280;32678;43.852;25.952;2023-02-12T13:16:39;102679.41;;;4.52;63.18
46944;BME280;32678;43.852;25.952;2023-02-12T13:21:41;102690.63;;;4.51;63.58
46944;BME280;32678;43.852;25.952;2023-02-12T13:26:43;102698.72;;;4.63;62.23
46944;BME280;32678;43.852;25.952;2023-02-12T13:31:43;102705.34;;;4.50;62.63
46944;BME280;32678;43.852;25.952;2023-02-12T13:36:41;102704.03;;;4.67;62.51
46944;BME280;32678;43.852;25.952;2023-02-12T13:41:38;102708.19;;;4.61;61.80
46944;BME280;32678;43.852;25.952;2023-02-12T13:46:39;102717.06;;;4.70;62.40
46944;BME280;32678;43.852;25.952;2023-02-12T13:51:41;102716.13;;;4.67;61.54
46944;BME280;32678;43.852;25.952;2023-02-12T13:56:40;102718.88;;;4.74;61.61
46944;BME280;32678;43.852;25.952;2023-02-12T14:01:41;102720.78;;;4.82;61.35
46944;BME280;32678;43.852;25.952;2023-02-12T14:06:51;102718.94;;;4.76;61.12
46944;BME280;32678;43.852;25.952;2023-02-12T14:11:50;102707.56;;;4.71;61.51
46944;BME280;32678;43.852;25.952;2023-02-12T14:16:48;102722.34;;;4.73;61.48
46944;BME280;32678;43.852;25.952;2023-02-12T14:21:45;102727.59;;;4.76;61.76
46944;BME280;32678;43.852;25.952;2023-02-12T14:26:45;102735.47;;;4.79;61.99
46944;BME280;32678;43.852;25.952;2023-02-12T14:31:42;102746.84;;;4.85;61.78
46944;BME280;32678;43.852;25.952;2023-02-12T14:36:40;102753.75;;;4.84;62.51
46944;BME280;32678;43.852;25.952;2023-02-12T14:41:38;102762.81;;;5.01;62.06
46944;BME280;32678;43.852;25.952;2023-02-12T14:46:43;102768.88;;;5.02;61.94
46944;BME280;32678;43.852;25.952;2023-02-12T14:51:41;102774.66;;;4.89;62.44
46944;BME280;32678;43.852;25.952;2023-02-12T14:56:41;102765.13;;;4.88;62.80
46944;BME280;32678;43.852;25.952;2023-02-12T15:01:40;102782.38;;;4.86;62.42
46944;BME280;32678;43.852;25.952;2023-02-12T15:06:41;102797.75;;;4.76;61.80
46944;BME280;32678;43.852;25.952;2023-02-12T15:11:40;102795.94;;;4.72;61.53
46944;BME280;32678;43.852;25.952;2023-02-12T15:16:42;102806.22;;;4.68;61.41
46944;BME280;32678;43.852;25.952;2023-02-12T15:21:42;102812.69;;;4.85;60.17
46944;BME280;32678;43.852;25.952;2023-02-12T15:26:41;102820.84;;;4.64;60.80
46944;BME280;32678;43.852;25.952;2023-02-12T15:31:40;102827.75;;;4.62;60.92
46944;BME280;32678;43.852;25.952;2023-02-12T15:36:37;102832.13;;;4.65;60.28
46944;BME280;32678;43.852;25.952;2023-02-12T15:41:38;102855.28;;;4.56;60.55
46944;BME280;32678;43.852;25.952;2023-02-12T15:46:35;102867.28;;;4.51;61.09
46944;BME280;32678;43.852;25.952;2023-02-12T15:51:33;102879.50;;;4.55;61.43
46944;BME280;32678;43.852;25.952;2023-02-12T15:56:30;102892.47;;;4.55;61.74
46944;BME280;32678;43.852;25.952;2023-02-12T16:01:30;102901.56;;;4.70;61.87
46944;BME280;32678;43.852;25.952;2023-02-12T16:06:30;102914.84;;;4.50;62.76
46944;BME280;32678;43.852;25.952;2023-02-12T16:11:27;102922.59;;;4.47;62.12
46944;BME280;32678;43.852;25.952;2023-02-12T16:16:28;102936.50;;;4.17;62.93
46944;BME280;32678;43.852;25.952;2023-02-12T16:21:26;102938.38;;;4.23;63.24
46944;BME280;32678;43.852;25.952;2023-02-12T16:26:25;102950.31;;;4.16;63.49
46944;BME280;32678;43.852;25.952;2023-02-12T16:31:22;102963.28;;;4.16;63.68
46944;BME280;32678;43.852;25.952;2023-02-12T16:36:31;102966.63;;;4.12;64.07
46944;BME280;32678;43.852;25.952;2023-02-12T16:41:27;102974.91;;;4.29;63.78
46944;BME280;32678;43.852;25.952;2023-02-12T16:46:26;102975.69;;;4.26;63.78
46944;BME280;32678;43.852;25.952;2023-02-12T16:51:24;102985.25;;;4.27;63.71
46944;BME280;32678;43.852;25.952;2023-02-12T16:56:24;102997.84;;;4.45;62.96
46944;BME280;32678;43.852;25.952;2023-02-12T17:01:22;103009.75;;;4.37;63.41
46944;BME280;32678;43.852;25.952;2023-02-12T17:06:19;103017.13;;;4.22;64.05
46944;BME280;32678;43.852;25.952;2023-02-12T17:11:16;103027.88;;;4.34;63.82
46944;BME280;32678;43.852;25.952;2023-02-12T17:16:14;103016.34;;;4.24;63.57
46944;BME280;32678;43.852;25.952;2023-02-12T17:21:26;103006.94;;;4.00;63.83
46944;BME280;32678;43.852;25.952;2023-02-12T17:26:24;103033.22;;;4.40;61.91
46944;BME280;32678;43.852;25.952;2023-02-12T17:31:21;103034.22;;;4.45;61.90
46944;BME280;32678;43.852;25.952;2023-02-12T17:36:19;103025.16;;;4.29;61.88
46944;BME280;32678;43.852;25.952;2023-02-12T17:41:16;103045.47;;;4.16;63.03
46944;BME280;32678;43.852;25.952;2023-02-12T17:46:16;103053.72;;;4.29;62.98
46944;BME280;32678;43.852;25.952;2023-02-12T17:51:16;103051.56;;;4.46;62.13
46944;BME280;32678;43.852;25.952;2023-02-12T17:56:17;103049.81;;;4.45;62.14
46944;BME280;32678;43.852;25.952;2023-02-12T18:01:15;103056.16;;;4.55;61.24
46944;BME280;32678;43.852;25.952;2023-02-12T18:06:12;103065.44;;;4.47;61.34
46944;BME280;32678;43.852;25.952;2023-02-12T18:11:12;103075.13;;;4.52;61.17
46944;BME280;32678;43.852;25.952;2023-02-12T18:16:09;103086.28;;;4.79;61.10
46944;BME280;32678;43.852;25.952;2023-02-12T18:21:16;103084.09;;;4.93;61.33
46944;BME280;32678;43.852;25.952;2023-02-12T18:26:14;103089.50;;;5.01;61.80
46944;BME280;32678;43.852;25.952;2023-02-12T18:31:12;103107.94;;;5.10;61.84
46944;BME280;32678;43.852;25.952;2023-02-12T18:36:12;103116.69;;;5.13;61.81
46944;BME280;32678;43.852;25.952;2023-02-12T18:41:10;103121.91;;;5.13;62.51
46944;BME280;32678;43.852;25.952;2023-02-12T18:46:09;103123.75;;;5.17;62.95
46944;BME280;32678;43.852;25.952;2023-02-12T18:51:06;103133.28;;;5.17;63.59
46944;BME280;32678;43.852;25.952;2023-02-12T18:56:04;103141.97;;;5.17;63.90
46944;BME280;32678;43.852;25.952;2023-02-12T19:01:11;103145.44;;;5.18;64.57
46944;BME280;32678;43.852;25.952;2023-02-12T19:06:10;103153.56;;;5.30;65.06
46944;BME280;32678;43.852;25.952;2023-02-12T19:11:43;103156.16;;;5.30;63.65
46944;BME280;32678;43.852;25.952;2023-02-12T19:16:47;103162.09;;;5.24;63.13
46944;BME280;32678;43.852;25.952;2023-02-12T19:21:45;103172.53;;;5.26;62.46
46944;BME280;32678;43.852;25.952;2023-02-12T19:26:51;103177.69;;;5.24;62.20
46944;BME280;32678;43.852;25.952;2023-02-12T19:32:02;103180.56;;;5.04;62.42
46944;BME280;32678;43.852;25.952;2023-02-12T19:37:06;103206.22;;;4.92;63.22
46944;BME280;32678;43.852;25.952;2023-02-12T19:42:12;103200.94;;;4.89;64.33
46944;BME280;32678;43.852;25.952;2023-02-12T19:47:18;103200.28;;;4.96;63.34
46944;BME280;32678;43.852;25.952;2023-02-12T19:52:18;103202.00;;;4.95;62.99
46944;BME280;32678;43.852;25.952;2023-02-12T19:57:16;103198.94;;;4.80;63.41
46944;BME280;32678;43.852;25.952;2023-02-12T20:02:13;103200.03;;;4.58;63.80
46944;BME280;32678;43.852;25.952;2023-02-12T20:07:11;103210.84;;;4.72;63.36
46944;BME280;32678;43.852;25.952;2023-02-12T20:12:10;103204.69;;;4.70;63.54
46944;BME280;32678;43.852;25.952;2023-02-12T20:17:07;103209.19;;;4.47;64.42
46944;BME280;32678;43.852;25.952;2023-02-12T20:22:05;103209.59;;;4.59;64.33
46944;BME280;32678;43.852;25.952;2023-02-12T20:27:02;103219.66;;;4.77;63.63
46944;BME280;32678;43.852;25.952;2023-02-12T20:31:59;103200.63;;;4.78;63.24
46944;BME280;32678;43.852;25.952;2023-02-12T20:36:58;103223.81;;;5.00;63.06
46944;BME280;32678;43.852;25.952;2023-02-12T20:41:55;103221.06;;;4.96;62.82
46944;BME280;32678;43.852;25.952;2023-02-12T20:46:52;103220.94;;;4.91;61.95
46944;BME280;32678;43.852;25.952;2023-02-12T20:51:52;103216.53;;;4.60;61.94
46944;BME280;32678;43.852;25.952;2023-02-12T20:56:50;103211.13;;;4.53;61.85
46944;BME280;32678;43.852;25.952;2023-02-12T21:01:48;103222.09;;;4.17;63.38
46944;BME280;32678;43.852;25.952;2023-02-12T21:06:45;103227.34;;;4.19;63.65
46944;BME280;32678;43.852;25.952;2023-02-12T21:11:43;103222.91;;;4.16;63.65
46944;BME280;32678;43.852;25.952;2023-02-12T21:16:41;103239.44;;;4.18;63.86
46944;BME280;32678;43.852;25.952;2023-02-12T21:21:40;103245.28;;;4.38;62.90
46944;BME280;32678;43.852;25.952;2023-02-12T21:26:37;103234.69;;;4.05;63.07
46944;BME280;32678;43.852;25.952;2023-02-12T21:31:35;103249.69;;;4.14;63.10
46944;BME280;32678;43.852;25.952;2023-02-12T21:36:33;103250.03;;;4.24;63.25
46944;BME280;32678;43.852;25.952;2023-02-12T21:41:30;103257.53;;;4.42;63.08
46944;BME280;32678;43.852;25.952;2023-02-12T21:46:30;103255.00;;;4.45;61.32
46944;BME280;32678;43.852;25.952;2023-02-12T21:51:27;103259.09;;;4.37;61.53
46944;BME280;32678;43.852;25.952;2023-02-12T21:56:25;103266.75;;;4.32;61.10
46944;BME280;32678;43.852;25.952;2023-02-12T22:01:23;103263.03;;;4.24;60.82
46944;BME280;32678;43.852;25.952;2023-02-12T22:06:21;103274.31;;;4.26;59.97
46944;BME280;32678;43.852;25.952;2023-02-12T22:11:20;103275.50;;;4.36;60.28
46944;BME280;32678;43.852;25.952;2023-02-12T22:16:17;103273.91;;;4.40;60.65
46944;BME280;32678;43.852;25.952;2023-02-12T22:21:15;103274.59;;;4.34;61.53
46944;BME280;32678;43.852;25.952;2023-02-12T22:26:13;103283.78;;;4.24;60.63
46944;BME280;32678;43.852;25.952;2023-02-12T22:31:11;103272.91;;;4.36;58.92
46944;BME280;32678;43.852;25.952;2023-02-12T22:36:09;103273.34;;;3.98;58.22
46944;BME280;32678;43.852;25.952;2023-02-12T22:41:06;103285.91;;;3.85;58.49
46944;BME280;32678;43.852;25.952;2023-02-12T22:46:05;103286.81;;;3.86;57.71
46944;BME280;32678;43.852;25.952;2023-02-12T22:51:06;103291.81;;;3.81;57.28
46944;BME280;32678;43.852;25.952;2023-02-12T22:56:03;103295.28;;;3.82;57.30
46944;BME280;32678;43.852;25.952;2023-02-12T23:01:05;103296.28;;;3.62;57.57
46944;BME280;32678;43.852;25.952;2023-02-12T23:06:05;103302.81;;;3.74;57.43
46944;BME280;32678;43.852;25.952;2023-02-12T23:11:02;103302.88;;;3.76;57.23
46944;BME280;32678;43.852;25.952;2023-02-12T23:16:02;103283.13;;;3.56;57.48
46944;BME280;32678;43.852;25.952;2023-02-12T23:21:00;103302.34;;;3.61;57.45
46944;BME280;32678;43.852;25.952;2023-02-12T23:25:57;103303.91;;;3.57;57.77
46944;BME280;32678;43.852;25.952;2023-02-12T23:30:54;103301.78;;;3.69;57.43
46944;BME280;32678;43.852;25.952;2023-02-12T23:35:54;103296.47;;;3.66;56.28
46944;BME280;32678;43.852;25.952;2023-02-12T23:40:51;103306.56;;;3.82;56.46
46944;BME280;32678;43.852;25.952;2023-02-12T23:45:51;103304.28;;;3.91;56.18
46944;BME280;32678;43.852;25.952;2023-02-12T23:50:48;103302.50;;;4.14;56.97
46944;BME280;32678;43.852;25.952;2023-02-12T23:55:48;103312.22;;;4.21;58.56
